sensor_id;sensor_type;location;lat;lon;timestamp;pressure;altitude;pressure_sealevel;temperature;humidity
15884;BME280;8040;50.254;10.960;2024-01-11T00:00:20;99396.00;;;-1.02;56.01
15884;BME280;8040;50.254;10.960;2024-01-11T00:02:46;99398.81;;;-1.10;56.30
15884;BME280;8040;50.254;10.960;2024-01-11T00:05:11;99405.56;;;-1.14;56.50
15884;BME280;8040;50.254;10.960;2024-01-11T00:07:36;99404.94;;;-1.16;56.63
15884;BME280;8040;50.254;10.960;2024-01-11T00:10:02;99415.97;;;-1.19;56.81
15884;BME280;8040;50.254;10.960;2024-01-11T00:12:28;99398.22;;;-1.06;56.37
15884;BME280;8040;50.254;10.960;2024-01-11T00:14:54;99403.53;;;-1.12;56.48
15884;BME280;8040;50.254;10.960;2024-01-11T00:17:19;99408.63;;;-1.17;56.77
15884;BME280;8040;50.254;10.960;2024-01-11T00:19:44;99400.81;;;-1.19;56.80
15884;BME280;8040;50.254;10.960;2024-01-11T00:22:10;99411.66;;;-1.20;56.87
15884;BME280;8040;50.254;10.960;2024-01-11T00:24:35;99403.53;;;-1.12;56.76
15884;BME280;8040;50.254;10.960;2024-01-11T00:27:00;99399.44;;;-1.08;56.66
15884;BME280;8040;50.254;10.960;2024-01-11T00:29:26;99383.66;;;-1.10;56.18
15884;BME280;8040;50.254;10.960;2024-01-11T00:31:51;99390.44;;;-1.07;56.41
15884;BME280;8040;50.254;10.960;2024-01-11T00:34:16;99389.56;;;-1.21;56.49
15884;BME280;8040;50.254;10.960;2024-01-11T00:36:42;99387.91;;;-1.22;56.99
15884;BME280;8040;50.254;10.960;2024-01-11T00:39:07;99387.03;;;-1.29;57.69
15884;BME280;8040;50.254;10.960;2024-01-11T00:41:32;99394.47;;;-1.24;57.44
15884;BME280;8040;50.254;10.960;2024-01-11T00:43:58;99393.19;;;-1.28;57.28
15884;BME280;8040;50.254;10.960;2024-01-11T00:46:23;99398.72;;;-1.30;57.29
15884;BME280;8040;50.254;10.960;2024-01-11T00:48:48;99394.84;;;-1.27;57.26
15884;BME280;8040;50.254;10.960;2024-01-11T00:51:14;99389.00;;;-1.44;57.53
15884;BME280;8040;50.254;10.960;2024-01-11T00:53:40;99386.97;;;-1.42;57.86
15884;BME280;8040;50.254;10.960;2024-01-11T00:56:05;99393.50;;;-1.44;58.01
15884;BME280;8040;50.254;10.960;2024-01-11T00:58:30;99394.59;;;-1.32;57.94
15884;BME280;8040;50.254;10.960;2024-01-11T01:00:56;99394.34;;;-1.37;58.11
15884;BME280;8040;50.254;10.960;2024-01-11T01:03:21;99394.47;;;-1.24;57.98
15884;BME280;8040;50.254;10.960;2024-01-11T01:05:47;99388.91;;;-1.23;57.83
15884;BME280;8040;50.254;10.960;2024-01-11T01:08:12;99391.81;;;-1.24;57.40
15884;BME280;8040;50.254;10.960;2024-01-11T01:10:37;99396.94;;;-1.16;57.30
15884;BME280;8040;50.254;10.960;2024-01-11T01:13:03;99400.00;;;-1.19;57.40
15884;BME280;8040;50.254;10.960;2024-01-11T01:15:28;99397.75;;;-1.22;57.22
15884;BME280;8040;50.254;10.960;2024-01-11T01:17:53;99399.38;;;-1.21;56.81
15884;BME280;8040;50.254;10.960;2024-01-11T01:20:18;99388.34;;;-1.18;57.04
15884;BME280;8040;50.254;10.960;2024-01-11T01:22:44;99396.53;;;-1.20;56.90
15884;BME280;8040;50.254;10.960;2024-01-11T01:25:09;99385.09;;;-1.14;56.72
15884;BME280;8040;50.254;10.960;2024-01-11T01:27:34;99382.63;;;-1.15;56.93
15884;BME280;8040;50.254;10.960;2024-01-11T01:29:59;99382.94;;;-1.31;56.90
15884;BME280;8040;50.254;10.960;2024-01-11T01:32:25;99387.81;;;-1.35;57.34
15884;BME280;8040;50.254;10.960;2024-01-11T01:34:50;99381.81;;;-1.50;57.21
15884;BME280;8040;50.254;10.960;2024-01-11T01:37:16;99385.69;;;-1.52;57.60
15884;BME280;8040;50.254;10.960;2024-01-11T01:39:41;99383.19;;;-1.60;57.68
15884;BME280;8040;50.254;10.960;2024-01-11T01:42:07;99383.63;;;-1.57;57.70
15884;BME280;8040;50.254;10.960;2024-01-11T01:44:33;99385.44;;;-1.57;58.06
15884;BME280;8040;50.254;10.960;2024-01-11T01:46:58;99390.50;;;-1.62;57.86
15884;BME280;8040;50.254;10.960;2024-01-11T01:49:24;99371.22;;;-1.71;58.11
15884;BME280;8040;50.254;10.960;2024-01-11T01:51:50;99394.63;;;-1.60;58.22
15884;BME280;8040;50.254;10.960;2024-01-11T01:54:16;99399.50;;;-1.63;57.89
15884;BME280;8040;50.254;10.960;2024-01-11T01:56:41;99403.38;;;-1.66;58.03
15884;BME280;8040;50.254;10.960;2024-01-11T01:59:07;99398.06;;;-1.66;57.83
15884;BME280;8040;50.254;10.960;2024-01-11T02:01:33;99400.34;;;-1.63;57.82
15884;BME280;8040;50.254;10.960;2024-01-11T02:03:59;99404.47;;;-1.60;57.85
15884;BME280;8040;50.254;10.960;2024-01-11T02:06:25;99403.44;;;-1.59;57.85
15884;BME280;8040;50.254;10.960;2024-01-11T02:08:53;99383.97;;;-1.66;57.61
15884;BME280;8040;50.254;10.960;2024-01-11T02:11:20;99394.25;;;-1.57;57.25
15884;BME280;8040;50.254;10.960;2024-01-11T02:13:45;99393.94;;;-1.68;57.44
15884;BME280;8040;50.254;10.960;2024-01-11T02:16:11;99394.16;;;-1.70;57.37
15884;BME280;8040;50.254;10.960;2024-01-11T02:18:38;99393.84;;;-1.81;57.48
15884;BME280;8040;50.254;10.960;2024-01-11T02:21:03;99397.28;;;-1.87;57.51
15884;BME280;8040;50.254;10.960;2024-01-11T02:23:31;99388.59;;;-2.02;57.97
15884;BME280;8040;50.254;10.960;2024-01-11T02:25:57;99386.19;;;-1.97;58.26
15884;BME280;8040;50.254;10.960;2024-01-11T02:28:22;99385.09;;;-2.03;58.26
15884;BME280;8040;50.254;10.960;2024-01-11T02:30:47;99380.78;;;-2.04;58.32
15884;BME280;8040;50.254;10.960;2024-01-11T02:33:13;99396.06;;;-2.12;58.73
15884;BME280;8040;50.254;10.960;2024-01-11T02:35:41;99395.44;;;-2.14;58.78
15884;BME280;8040;50.254;10.960;2024-01-11T02:38:07;99404.47;;;-2.09;58.96
15884;BME280;8040;50.254;10.960;2024-01-11T02:40:33;99404.47;;;-2.09;58.92
15884;BME280;8040;50.254;10.960;2024-01-11T02:43:06;99389.53;;;-2.10;59.07
15884;BME280;8040;50.254;10.960;2024-01-11T02:45:32;99391.44;;;-2.04;58.97
15884;BME280;8040;50.254;10.960;2024-01-11T02:47:57;99383.72;;;-1.99;58.74
15884;BME280;8040;50.254;10.960;2024-01-11T02:50:22;99381.41;;;-2.02;58.52
15884;BME280;8040;50.254;10.960;2024-01-11T02:52:47;99370.94;;;-2.10;58.99
15884;BME280;8040;50.254;10.960;2024-01-11T02:55:13;99345.88;;;-2.22;58.80
15884;BME280;8040;50.254;10.960;2024-01-11T02:57:38;99360.31;;;-2.10;58.93
15884;BME280;8040;50.254;10.960;2024-01-11T03:00:04;99358.22;;;-2.14;58.67
15884;BME280;8040;50.254;10.960;2024-01-11T03:02:29;99366.72;;;-2.25;58.83
15884;BME280;8040;50.254;10.960;2024-01-11T03:04:54;99360.22;;;-2.16;58.16
15884;BME280;8040;50.254;10.960;2024-01-11T03:07:19;99359.78;;;-2.20;58.65
15884;BME280;8040;50.254;10.960;2024-01-11T03:09:45;99360.19;;;-2.23;58.84
15884;BME280;8040;50.254;10.960;2024-01-11T03:12:10;99368.78;;;-2.21;58.84
15884;BME280;8040;50.254;10.960;2024-01-11T03:14:35;99361.00;;;-2.22;58.94
15884;BME280;8040;50.254;10.960;2024-01-11T03:17:01;99366.78;;;-2.19;58.88
15884;BME280;8040;50.254;10.960;2024-01-11T03:19:26;99363.53;;;-2.14;58.84
15884;BME280;8040;50.254;10.960;2024-01-11T03:21:52;99368.59;;;-2.19;59.24
15884;BME280;8040;50.254;10.960;2024-01-11T03:24:17;99359.75;;;-2.26;59.01
15884;BME280;8040;50.254;10.960;2024-01-11T03:26:43;99362.03;;;-2.23;59.07
15884;BME280;8040;50.254;10.960;2024-01-11T03:29:08;99365.50;;;-2.23;59.18
15884;BME280;8040;50.254;10.960;2024-01-11T03:31:33;99373.81;;;-2.32;59.36
15884;BME280;8040;50.254;10.960;2024-01-11T03:33:59;99367.88;;;-2.34;59.26
15884;BME280;8040;50.254;10.960;2024-01-11T03:36:24;99367.03;;;-2.35;59.29
15884;BME280;8040;50.254;10.960;2024-01-11T03:38:52;99363.34;;;-2.34;59.34
15884;BME280;8040;50.254;10.960;2024-01-11T03:41:17;99363.75;;;-2.37;59.36
15884;BME280;8040;50.254;10.960;2024-01-11T03:43:42;99353.88;;;-2.43;59.42
15884;BME280;8040;50.254;10.960;2024-01-11T03:46:08;99360.75;;;-2.48;59.37
15884;BME280;8040;50.254;10.960;2024-01-11T03:48:33;99356.72;;;-2.44;59.16
15884;BME280;8040;50.254;10.960;2024-01-11T03:51:00;99361.66;;;-2.41;59.24
15884;BME280;8040;50.254;10.960;2024-01-11T03:53:25;99350.53;;;-2.51;59.08
15884;BME280;8040;50.254;10.960;2024-01-11T03:55:51;99357.31;;;-2.49;59.44
15884;BME280;8040;50.254;10.960;2024-01-11T03:58:16;99355.84;;;-2.51;59.26
15884;BME280;8040;50.254;10.960;2024-01-11T04:00:41;99363.41;;;-2.48;59.49
15884;BME280;8040;50.254;10.960;2024-01-11T04:03:07;99352.94;;;-2.56;59.23
15884;BME280;8040;50.254;10.960;2024-01-11T04:05:32;99363.28;;;-2.61;59.05
15884;BME280;8040;50.254;10.960;2024-01-11T04:07:57;99366.97;;;-2.62;59.43
15884;BME280;8040;50.254;10.960;2024-01-11T04:10:23;99364.94;;;-2.60;59.43
15884;BME280;8040;50.254;10.960;2024-01-11T04:12:48;99360.38;;;-2.66;59.29
15884;BME280;8040;50.254;10.960;2024-01-11T04:15:14;99368.78;;;-2.63;59.34
15884;BME280;8040;50.254;10.960;2024-01-11T04:17:39;99365.38;;;-2.57;59.42
15884;BME280;8040;50.254;10.960;2024-01-11T04:20:05;99374.19;;;-2.56;59.34
15884;BME280;8040;50.254;10.960;2024-01-11T04:22:30;99373.16;;;-2.55;59.18
15884;BME280;8040;50.254;10.960;2024-01-11T04:24:55;99380.25;;;-2.62;59.63
15884;BME280;8040;50.254;10.960;2024-01-11T04:27:21;99376.44;;;-2.53;59.18
15884;BME280;8040;50.254;10.960;2024-01-11T04:29:46;99383.91;;;-2.63;59.45
15884;BME280;8040;50.254;10.960;2024-01-11T04:32:11;99386.75;;;-2.65;59.36
15884;BME280;8040;50.254;10.960;2024-01-11T04:34:37;99395.34;;;-2.63;59.22
15884;BME280;8040;50.254;10.960;2024-01-11T04:37:02;99387.19;;;-2.61;59.30
15884;BME280;8040;50.254;10.960;2024-01-11T04:39:27;99379.84;;;-2.80;59.25
15884;BME280;8040;50.254;10.960;2024-01-11T04:41:53;99380.28;;;-2.77;59.69
15884;BME280;8040;50.254;10.960;2024-01-11T04:44:18;99386.78;;;-2.79;59.83
15884;BME280;8040;50.254;10.960;2024-01-11T04:46:43;99401.34;;;-2.75;59.73
15884;BME280;8040;50.254;10.960;2024-01-11T04:49:08;99405.53;;;-2.81;59.55
15884;BME280;8040;50.254;10.960;2024-01-11T04:51:34;99406.28;;;-2.87;59.52
15884;BME280;8040;50.254;10.960;2024-01-11T04:53:59;99408.94;;;-2.87;59.74
15884;BME280;8040;50.254;10.960;2024-01-11T04:56:25;99392.47;;;-2.82;59.71
15884;BME280;8040;50.254;10.960;2024-01-11T04:58:51;99389.16;;;-2.84;59.51
15884;BME280;8040;50.254;10.960;2024-01-11T05:01:17;99391.28;;;-2.80;59.56
15884;BME280;8040;50.254;10.960;2024-01-11T05:03:42;99381.94;;;-2.90;59.57
15884;BME280;8040;50.254;10.960;2024-01-11T05:06:08;99392.72;;;-2.77;59.45
15884;BME280;8040;50.254;10.960;2024-01-11T05:08:33;99391.75;;;-2.76;59.54
15884;BME280;8040;50.254;10.960;2024-01-11T05:10:58;99389.44;;;-2.79;59.84
15884;BME280;8040;50.254;10.960;2024-01-11T05:13:24;99388.44;;;-2.78;59.39
15884;BME280;8040;50.254;10.960;2024-01-11T05:15:49;99371.69;;;-2.79;59.42
15884;BME280;8040;50.254;10.960;2024-01-11T05:18:14;99387.19;;;-2.82;59.47
15884;BME280;8040;50.254;10.960;2024-01-11T05:20:40;99397.25;;;-2.92;59.50
15884;BME280;8040;50.254;10.960;2024-01-11T05:23:05;99400.00;;;-2.86;59.88
15884;BME280;8040;50.254;10.960;2024-01-11T05:25:31;99396.63;;;-2.94;59.24
15884;BME280;8040;50.254;10.960;2024-01-11T05:27:59;99398.28;;;-2.93;59.80
15884;BME280;8040;50.254;10.960;2024-01-11T05:30:24;99395.50;;;-2.85;59.66
15884;BME280;8040;50.254;10.960;2024-01-11T05:32:50;99395.94;;;-2.82;59.92
15884;BME280;8040;50.254;10.960;2024-01-11T05:35:15;99397.41;;;-2.79;59.48
15884;BME280;8040;50.254;10.960;2024-01-11T05:37:40;99405.63;;;-2.74;59.61
15884;BME280;8040;50.254;10.960;2024-01-11T05:40:06;99397.59;;;-2.81;59.60
15884;BME280;8040;50.254;10.960;2024-01-11T05:42:32;99405.53;;;-2.81;59.56
15884;BME280;8040;50.254;10.960;2024-01-11T05:44:58;99400.63;;;-2.84;59.40
15884;BME280;8040;50.254;10.960;2024-01-11T05:47:23;99406.22;;;-2.93;59.92
15884;BME280;8040;50.254;10.960;2024-01-11T05:49:49;99410.41;;;-2.84;59.67
15884;BME280;8040;50.254;10.960;2024-01-11T05:52:15;99411.34;;;-2.92;59.61
15884;BME280;8040;50.254;10.960;2024-01-11T05:54:40;99411.81;;;-2.88;60.10
15884;BME280;8040;50.254;10.960;2024-01-11T05:57:05;99416.09;;;-2.87;59.93
15884;BME280;8040;50.254;10.960;2024-01-11T05:59:30;99422.22;;;-2.87;59.79
15884;BME280;8040;50.254;10.960;2024-01-11T06:01:55;99429.72;;;-2.90;59.81
15884;BME280;8040;50.254;10.960;2024-01-11T06:04:25;99434.41;;;-2.92;59.92
15884;BME280;8040;50.254;10.960;2024-01-11T06:06:51;99449.25;;;-2.98;60.21
15884;BME280;8040;50.254;10.960;2024-01-11T06:09:16;99450.91;;;-2.97;59.96
15884;BME280;8040;50.254;10.960;2024-01-11T06:11:41;99454.13;;;-3.01;59.82
15884;BME280;8040;50.254;10.960;2024-01-11T06:14:07;99445.78;;;-2.98;59.63
15884;BME280;8040;50.254;10.960;2024-01-11T06:16:32;99455.38;;;-2.97;59.69
15884;BME280;8040;50.254;10.960;2024-01-11T06:18:57;99441.03;;;-3.03;59.85
15884;BME280;8040;50.254;10.960;2024-01-11T06:21:23;99441.81;;;-3.02;59.34
15884;BME280;8040;50.254;10.960;2024-01-11T06:23:48;99431.66;;;-2.99;59.83
15884;BME280;8040;50.254;10.960;2024-01-11T06:26:14;99426.09;;;-2.89;59.63
15884;BME280;8040;50.254;10.960;2024-01-11T06:28:39;99434.06;;;-2.89;59.35
15884;BME280;8040;50.254;10.960;2024-01-11T06:31:06;99442.28;;;-2.99;59.71
15884;BME280;8040;50.254;10.960;2024-01-11T06:33:31;99445.50;;;-3.03;59.72
15884;BME280;8040;50.254;10.960;2024-01-11T06:35:58;99450.81;;;-3.03;59.77
15884;BME280;8040;50.254;10.960;2024-01-11T06:38:23;99453.72;;;-2.98;59.16
15884;BME280;8040;50.254;10.960;2024-01-11T06:40:48;99456.50;;;-3.06;58.94
15884;BME280;8040;50.254;10.960;2024-01-11T06:43:14;99456.22;;;-3.11;59.56
15884;BME280;8040;50.254;10.960;2024-01-11T06:45:39;99452.81;;;-3.05;59.65
15884;BME280;8040;50.254;10.960;2024-01-11T06:48:05;99451.19;;;-3.06;59.62
15884;BME280;8040;50.254;10.960;2024-01-11T06:50:31;99459.41;;;-3.01;60.00
15884;BME280;8040;50.254;10.960;2024-01-11T06:52:56;99458.88;;;-3.11;60.40
15884;BME280;8040;50.254;10.960;2024-01-11T06:55:22;99446.97;;;-3.15;60.22
15884;BME280;8040;50.254;10.960;2024-01-11T06:57:48;99474.84;;;-3.05;59.93
15884;BME280;8040;50.254;10.960;2024-01-11T07:00:13;99476.31;;;-3.02;60.06
15884;BME280;8040;50.254;10.960;2024-01-11T07:02:38;99463.16;;;-2.96;59.50
15884;BME280;8040;50.254;10.960;2024-01-11T07:05:05;99459.94;;;-3.06;59.89
15884;BME280;8040;50.254;10.960;2024-01-11T07:07:30;99456.94;;;-3.03;59.94
15884;BME280;8040;50.254;10.960;2024-01-11T07:09:55;99449.34;;;-3.06;59.75
15884;BME280;8040;50.254;10.960;2024-01-11T07:12:21;99442.94;;;-3.11;59.69
15884;BME280;8040;50.254;10.960;2024-01-11T07:14:46;99448.88;;;-3.09;59.64
15884;BME280;8040;50.254;10.960;2024-01-11T07:17:11;99454.34;;;-3.11;59.76
15884;BME280;8040;50.254;10.960;2024-01-11T07:19:37;99455.59;;;-3.13;59.80
15884;BME280;8040;50.254;10.960;2024-01-11T07:22:02;99451.53;;;-3.24;60.06
15884;BME280;8040;50.254;10.960;2024-01-11T07:24:27;99456.31;;;-3.19;60.16
15884;BME280;8040;50.254;10.960;2024-01-11T07:27:00;99455.94;;;-3.16;60.24
15884;BME280;8040;50.254;10.960;2024-01-11T07:29:25;99456.56;;;-3.14;60.29
15884;BME280;8040;50.254;10.960;2024-01-11T07:31:51;99454.19;;;-3.09;59.73
15884;BME280;8040;50.254;10.960;2024-01-11T07:34:16;99457.22;;;-3.12;59.84
15884;BME280;8040;50.254;10.960;2024-01-11T07:36:47;99448.69;;;-3.08;59.52
15884;BME280;8040;50.254;10.960;2024-01-11T07:39:13;99438.09;;;-3.08;59.79
15884;BME280;8040;50.254;10.960;2024-01-11T07:41:38;99429.84;;;-2.98;59.79
15884;BME280;8040;50.254;10.960;2024-01-11T07:44:03;99425.09;;;-3.03;59.43
15884;BME280;8040;50.254;10.960;2024-01-11T07:46:29;99421.59;;;-3.03;59.41
15884;BME280;8040;50.254;10.960;2024-01-11T07:48:54;99442.56;;;-3.08;60.04
15884;BME280;8040;50.254;10.960;2024-01-11T07:51:19;99456.50;;;-3.06;59.81
15884;BME280;8040;50.254;10.960;2024-01-11T07:53:45;99463.78;;;-3.08;60.38
15884;BME280;8040;50.254;10.960;2024-01-11T07:56:10;99471.97;;;-2.95;60.21
15884;BME280;8040;50.254;10.960;2024-01-11T07:58:37;99480.00;;;-3.03;59.43
15884;BME280;8040;50.254;10.960;2024-01-11T08:01:03;99483.53;;;-3.11;59.69
15884;BME280;8040;50.254;10.960;2024-01-11T08:03:29;99487.94;;;-3.03;59.26
15884;BME280;8040;50.254;10.960;2024-01-11T08:05:55;99490.41;;;-3.16;59.07
15884;BME280;8040;50.254;10.960;2024-01-11T08:08:20;99480.25;;;-3.13;59.88
15884;BME280;8040;50.254;10.960;2024-01-11T08:10:47;99489.59;;;-3.02;60.14
15884;BME280;8040;50.254;10.960;2024-01-11T08:13:12;99486.47;;;-2.91;59.39
15884;BME280;8040;50.254;10.960;2024-01-11T08:15:38;99481.09;;;-2.98;59.09
15884;BME280;8040;50.254;10.960;2024-01-11T08:18:04;99484.38;;;-2.96;59.02
15884;BME280;8040;50.254;10.960;2024-01-11T08:20:39;99494.63;;;-2.93;58.74
15884;BME280;8040;50.254;10.960;2024-01-11T08:23:04;99497.28;;;-2.93;58.91
15884;BME280;8040;50.254;10.960;2024-01-11T08:25:30;99506.47;;;-2.95;58.67
15884;BME280;8040;50.254;10.960;2024-01-11T08:27:55;99502.22;;;-2.90;58.62
15884;BME280;8040;50.254;10.960;2024-01-11T08:30:20;99504.16;;;-2.84;58.77
15884;BME280;8040;50.254;10.960;2024-01-11T08:32:47;99503.03;;;-2.75;59.06
15884;BME280;8040;50.254;10.960;2024-01-11T08:35:12;99493.53;;;-2.69;58.90
15884;BME280;8040;50.254;10.960;2024-01-11T08:37:38;99485.44;;;-2.61;58.48
15884;BME280;8040;50.254;10.960;2024-01-11T08:40:04;99478.66;;;-2.49;58.17
15884;BME280;8040;50.254;10.960;2024-01-11T08:42:31;99470.63;;;-2.56;58.51
15884;BME280;8040;50.254;10.960;2024-01-11T08:44:56;99466.66;;;-2.45;58.28
15884;BME280;8040;50.254;10.960;2024-01-11T08:47:22;99464.56;;;-2.29;58.56
15884;BME280;8040;50.254;10.960;2024-01-11T08:49:47;99464.13;;;-2.11;58.13
15884;BME280;8040;50.254;10.960;2024-01-11T08:52:12;99456.91;;;-2.17;57.70
15884;BME280;8040;50.254;10.960;2024-01-11T08:54:38;99467.22;;;-2.08;57.39
15884;BME280;8040;50.254;10.960;2024-01-11T08:57:03;99475.66;;;-2.25;57.52
15884;BME280;8040;50.254;10.960;2024-01-11T08:59:28;99470.41;;;-2.19;57.55
15884;BME280;8040;50.254;10.960;2024-01-11T09:01:54;99466.78;;;-2.11;57.89
15884;BME280;8040;50.254;10.960;2024-01-11T09:04:24;99470.59;;;-1.99;58.59
15884;BME280;8040;50.254;10.960;2024-01-11T09:06:49;99465.41;;;-1.86;58.51
15884;BME280;8040;50.254;10.960;2024-01-11T09:09:15;99476.97;;;-1.73;58.39
15884;BME280;8040;50.254;10.960;2024-01-11T09:11:42;99479.56;;;-1.58;58.34
15884;BME280;8040;50.254;10.960;2024-01-11T09:14:07;99467.97;;;-1.51;58.01
15884;BME280;8040;50.254;10.960;2024-01-11T09:16:32;99465.31;;;-1.51;58.19
15884;BME280;8040;50.254;10.960;2024-01-11T09:18:58;99449.19;;;-1.43;58.25
15884;BME280;8040;50.254;10.960;2024-01-11T09:21:25;99447.44;;;-1.29;57.80
15884;BME280;8040;50.254;10.960;2024-01-11T09:23:50;99463.25;;;-1.21;57.35
15884;BME280;8040;50.254;10.960;2024-01-11T09:26:16;99459.34;;;-1.25;57.25
15884;BME280;8040;50.254;10.960;2024-01-11T09:28:41;99454.41;;;-1.28;56.98
15884;BME280;8040;50.254;10.960;2024-01-11T09:31:06;99451.50;;;-1.33;56.73
15884;BME280;8040;50.254;10.960;2024-01-11T09:33:31;99459.75;;;-1.22;57.09
15884;BME280;8040;50.254;10.960;2024-01-11T09:35:57;99471.06;;;-1.20;56.89
15884;BME280;8040;50.254;10.960;2024-01-11T09:38:22;99475.03;;;-1.37;56.62
15884;BME280;8040;50.254;10.960;2024-01-11T09:40:54;99469.59;;;-1.50;57.02
15884;BME280;8040;50.254;10.960;2024-01-11T09:43:25;99456.25;;;-1.29;57.27
15884;BME280;8040;50.254;10.960;2024-01-11T09:45:51;99444.19;;;-1.25;57.08
15884;BME280;8040;50.254;10.960;2024-01-11T09:48:17;99452.09;;;-1.04;57.04
15884;BME280;8040;50.254;10.960;2024-01-11T09:50:43;99458.41;;;-1.11;56.40
15884;BME280;8040;50.254;10.960;2024-01-11T09:53:08;99453.91;;;-1.11;56.89
15884;BME280;8040;50.254;10.960;2024-01-11T09:55:34;99474.16;;;-1.16;56.99
15884;BME280;8040;50.254;10.960;2024-01-11T09:58:01;99463.75;;;-1.05;57.24
15884;BME280;8040;50.254;10.960;2024-01-11T10:00:27;99454.06;;;-0.85;57.02
15884;BME280;8040;50.254;10.960;2024-01-11T10:02:53;99451.19;;;-0.83;56.77
15884;BME280;8040;50.254;10.960;2024-01-11T10:05:18;99455.84;;;-0.92;56.73
15884;BME280;8040;50.254;10.960;2024-01-11T10:07:44;99456.44;;;-0.96;56.97
15884;BME280;8040;50.254;10.960;2024-01-11T10:12:45;99461.94;;;-1.04;57.40
15884;BME280;8040;50.254;10.960;2024-01-11T10:15:10;99443.53;;;-0.99;57.46
15884;BME280;8040;50.254;10.960;2024-01-11T10:17:42;99429.44;;;-0.93;57.32
15884;BME280;8040;50.254;10.960;2024-01-11T10:20:09;99437.66;;;-0.82;57.39
15884;BME280;8040;50.254;10.960;2024-01-11T10:22:39;99432.75;;;-0.78;57.04
15884;BME280;8040;50.254;10.960;2024-01-11T10:25:09;99421.94;;;-0.70;57.16
15884;BME280;8040;50.254;10.960;2024-01-11T10:27:36;99437.75;;;-0.62;56.92
15884;BME280;8040;50.254;10.960;2024-01-11T10:30:01;99418.13;;;-0.48;56.96
15884;BME280;8040;50.254;10.960;2024-01-11T10:32:33;99426.72;;;-0.46;56.57
15884;BME280;8040;50.254;10.960;2024-01-11T10:35:00;99426.16;;;-0.35;56.95
15884;BME280;8040;50.254;10.960;2024-01-11T10:37:26;99430.50;;;-0.15;57.12
15884;BME280;8040;50.254;10.960;2024-01-11T10:39:52;99423.56;;;-0.03;56.75
15884;BME280;8040;50.254;10.960;2024-01-11T10:42:17;99422.94;;;0.01;56.10
15884;BME280;8040;50.254;10.960;2024-01-11T10:44:48;99442.84;;;0.12;56.01
15884;BME280;8040;50.254;10.960;2024-01-11T10:47:17;99442.44;;;0.08;55.45
15884;BME280;8040;50.254;10.960;2024-01-11T10:49:44;99442.44;;;0.15;55.74
15884;BME280;8040;50.254;10.960;2024-01-11T10:52:12;99437.13;;;0.21;55.62
15884;BME280;8040;50.254;10.960;2024-01-11T10:54:38;99437.75;;;0.23;55.69
15884;BME280;8040;50.254;10.960;2024-01-11T10:57:05;99438.34;;;0.25;55.11
15884;BME280;8040;50.254;10.960;2024-01-11T10:59:32;99441.81;;;0.19;55.09
15884;BME280;8040;50.254;10.960;2024-01-11T11:02:04;99449.44;;;0.09;55.83
15884;BME280;8040;50.254;10.960;2024-01-11T11:04:31;99436.50;;;0.06;56.18
15884;BME280;8040;50.254;10.960;2024-01-11T11:06:58;99442.66;;;0.07;56.48
15884;BME280;8040;50.254;10.960;2024-01-11T11:09:26;99442.03;;;0.18;56.58
15884;BME280;8040;50.254;10.960;2024-01-11T11:11:58;99444.50;;;0.19;55.95
15884;BME280;8040;50.254;10.960;2024-01-11T11:14:24;99450.06;;;0.31;55.57
15884;BME280;8040;50.254;10.960;2024-01-11T11:16:52;99442.66;;;0.26;55.51
15884;BME280;8040;50.254;10.960;2024-01-11T11:19:19;99434.03;;;0.57;55.53
15884;BME280;8040;50.254;10.960;2024-01-11T11:21:45;99435.41;;;0.79;54.76
15884;BME280;8040;50.254;10.960;2024-01-11T11:24:12;99428.03;;;0.81;54.38
15884;BME280;8040;50.254;10.960;2024-01-11T11:26:38;99415.50;;;0.81;54.33
15884;BME280;8040;50.254;10.960;2024-01-11T11:29:03;99407.47;;;0.81;54.44
15884;BME280;8040;50.254;10.960;2024-01-11T11:31:35;99400.47;;;0.93;54.27
15884;BME280;8040;50.254;10.960;2024-01-11T11:34:01;99406.59;;;1.13;54.36
15884;BME280;8040;50.254;10.960;2024-01-11T11:36:29;99409.84;;;1.15;54.12
15884;BME280;8040;50.254;10.960;2024-01-11T11:41:32;99402.75;;;1.47;53.62
15884;BME280;8040;50.254;10.960;2024-01-11T11:44:04;99401.44;;;1.56;53.19
15884;BME280;8040;50.254;10.960;2024-01-11T11:46:29;99389.88;;;1.68;53.33
15884;BME280;8040;50.254;10.960;2024-01-11T11:48:56;99386.16;;;1.69;52.71
15884;BME280;8040;50.254;10.960;2024-01-11T11:51:22;99389.56;;;1.83;52.43
15884;BME280;8040;50.254;10.960;2024-01-11T11:53:48;99383.56;;;1.87;51.75
15884;BME280;8040;50.254;10.960;2024-01-11T11:56:14;99374.41;;;2.01;51.46
15884;BME280;8040;50.254;10.960;2024-01-11T11:58:42;99373.31;;;2.09;51.03
15884;BME280;8040;50.254;10.960;2024-01-11T12:01:10;99371.50;;;2.27;50.88
15884;BME280;8040;50.254;10.960;2024-01-11T12:03:37;99369.75;;;2.39;50.22
15884;BME280;8040;50.254;10.960;2024-01-11T12:06:02;99366.34;;;2.50;50.13
15884;BME280;8040;50.254;10.960;2024-01-11T12:08:28;99359.06;;;2.57;49.51
15884;BME280;8040;50.254;10.960;2024-01-11T12:10:54;99369.53;;;2.65;49.08
15884;BME280;8040;50.254;10.960;2024-01-11T12:13:19;99367.13;;;2.75;49.16
15884;BME280;8040;50.254;10.960;2024-01-11T12:15:45;99364.97;;;2.84;48.98
15884;BME280;8040;50.254;10.960;2024-01-11T12:18:10;99363.88;;;2.91;48.47
15884;BME280;8040;50.254;10.960;2024-01-11T12:20:36;99360.31;;;2.97;48.01
15884;BME280;8040;50.254;10.960;2024-01-11T12:23:01;99367.22;;;3.05;48.08
15884;BME280;8040;50.254;10.960;2024-01-11T12:25:27;99368.63;;;3.07;47.93
15884;BME280;8040;50.254;10.960;2024-01-11T12:27:53;99377.66;;;3.13;47.97
15884;BME280;8040;50.254;10.960;2024-01-11T12:30:18;99371.81;;;3.16;47.26
15884;BME280;8040;50.254;10.960;2024-01-11T12:32:44;99370.28;;;3.08;47.08
15884;BME280;8040;50.254;10.960;2024-01-11T12:35:10;99377.69;;;3.24;47.33
15884;BME280;8040;50.254;10.960;2024-01-11T12:37:35;99370.16;;;3.33;46.68
15884;BME280;8040;50.254;10.960;2024-01-11T12:40:00;99364.47;;;3.41;46.72
15884;BME280;8040;50.254;10.960;2024-01-11T12:42:27;99358.69;;;3.44;46.66
15884;BME280;8040;50.254;10.960;2024-01-11T12:44:52;99360.09;;;3.46;47.13
15884;BME280;8040;50.254;10.960;2024-01-11T12:47:17;99349.72;;;3.50;46.82
15884;BME280;8040;50.254;10.960;2024-01-11T12:49:46;99337.72;;;3.52;47.01
15884;BME280;8040;50.254;10.960;2024-01-11T12:52:17;99343.34;;;3.62;46.86
15884;BME280;8040;50.254;10.960;2024-01-11T12:54:45;99334.63;;;3.67;47.21
15884;BME280;8040;50.254;10.960;2024-01-11T12:57:17;99329.75;;;3.75;46.45
15884;BME280;8040;50.254;10.960;2024-01-11T12:59:43;99321.25;;;3.78;46.78